sensor_id;sensor_type;location;lat;lon;timestamp;P1;durP1;ratioP1;P2;durP2;ratioP2
58756;SDS011;44527;47.460;19.016;2022-09-28T00:00:09;1.77;;;0.73;;
58756;SDS011;44527;47.460;19.016;2022-09-28T00:03:12;1.80;;;0.80;;
58756;SDS011;44527;47.460;19.016;2022-09-28T00:06:16;1.50;;;0.73;;
58756;SDS011;44527;47.460;19.016;2022-09-28T00:09:20;3.50;;;0.70;;
58756;SDS011;44527;47.460;19.016;2022-09-28T00:12:22;1.75;;;0.40;;
58756;SDS011;44527;47.460;19.016;2022-09-28T00:15:25;1.77;;;0.82;;
58756;SDS011;44527;47.460;19.016;2022-09-28T00:18:29;0.68;;;0.37;;
58756;SDS011;44527;47.460;19.016;2022-09-28T00:21:34;0.77;;;0.50;;
58756;SDS011;44527;47.460;19.016;2022-09-28T00:24:38;0.95;;;0.50;;
58756;SDS011;44527;47.460;19.016;2022-09-28T00:27:41;2.10;;;0.73;;
58756;SDS011;44527;47.460;19.016;2022-09-28T00:30:44;1.77;;;0.50;;
58756;SDS011;44527;47.460;19.016;2022-09-28T00:33:49;0.62;;;0.40;;
58756;SDS011;44527;47.460;19.016;2022-09-28T00:36:53;1.17;;;0.70;;
58756;SDS011;44527;47.460;19.016;2022-09-28T00:39:55;2.15;;;0.60;;
58756;SDS011;44527;47.460;19.016;2022-09-28T00:42:57;4.60;;;0.70;;
58756;SDS011;44527;47.460;19.016;2022-09-28T00:46:05;1.00;;;0.55;;
58756;SDS011;44527;47.460;19.016;2022-09-28T00:49:16;1.48;;;0.45;;
58756;SDS011;44527;47.460;19.016;2022-09-28T00:52:39;1.23;;;0.50;;
58756;SDS011;44527;47.460;19.016;2022-09-28T00:55:53;1.85;;;0.60;;
58756;SDS011;44527;47.460;19.016;2022-09-28T00:58:59;0.52;;;0.50;;
58756;SDS011;44527;47.460;19.016;2022-09-28T01:02:02;1.62;;;0.70;;
58756;SDS011;44527;47.460;19.016;2022-09-28T01:05:05;4.37;;;0.68;;
58756;SDS011;44527;47.460;19.016;2022-09-28T01:08:11;0.43;;;0.30;;
58756;SDS011;44527;47.460;19.016;2022-09-28T01:11:15;3.45;;;0.50;;
58756;SDS011;44527;47.460;19.016;2022-09-28T01:14:18;4.80;;;0.75;;
58756;SDS011;44527;47.460;19.016;2022-09-28T01:17:25;1.17;;;0.50;;
58756;SDS011;44527;47.460;19.016;2022-09-28T01:20:53;1.23;;;0.52;;
58756;SDS011;44527;47.460;19.016;2022-09-28T01:30:35;1.42;;;0.60;;
58756;SDS011;44527;47.460;19.016;2022-09-28T01:36:57;1.80;;;0.52;;
58756;SDS011;44527;47.460;19.016;2022-09-28T01:40:05;3.05;;;0.55;;
58756;SDS011;44527;47.460;19.016;2022-09-28T01:43:14;0.50;;;0.40;;
58756;SDS011;44527;47.460;19.016;2022-09-28T01:46:22;0.55;;;0.40;;
58756;SDS011;44527;47.460;19.016;2022-09-28T01:49:37;0.82;;;0.50;;
58756;SDS011;44527;47.460;19.016;2022-09-28T01:52:46;1.90;;;0.82;;
58756;SDS011;44527;47.460;19.016;2022-09-28T01:55:56;1.35;;;0.70;;
58756;SDS011;44527;47.460;19.016;2022-09-28T01:59:07;2.97;;;0.68;;
58756;SDS011;44527;47.460;19.016;2022-09-28T02:02:15;1.23;;;0.40;;
58756;SDS011;44527;47.460;19.016;2022-09-28T02:05:27;1.42;;;0.52;;
58756;SDS011;44527;47.460;19.016;2022-09-28T02:08:35;1.48;;;0.70;;
58756;SDS011;44527;47.460;19.016;2022-09-28T02:11:43;4.13;;;0.60;;
58756;SDS011;44527;47.460;19.016;2022-09-28T02:14:48;1.48;;;0.50;;
58756;SDS011;44527;47.460;19.016;2022-09-28T02:17:57;0.68;;;0.52;;
58756;SDS011;44527;47.460;19.016;2022-09-28T02:21:22;0.95;;;0.30;;
58756;SDS011;44527;47.460;19.016;2022-09-28T02:27:53;0.40;;;0.37;;
58756;SDS011;44527;47.460;19.016;2022-09-28T02:31:01;0.70;;;0.40;;
58756;SDS011;44527;47.460;19.016;2022-09-28T02:34:03;1.65;;;0.55;;
58756;SDS011;44527;47.460;19.016;2022-09-28T02:37:06;1.50;;;0.50;;
58756;SDS011;44527;47.460;19.016;2022-09-28T02:40:16;0.30;;;0.30;;
58756;SDS011;44527;47.460;19.016;2022-09-28T02:43:26;0.85;;;0.30;;
58756;SDS011;44527;47.460;19.016;2022-09-28T02:46:47;2.37;;;0.37;;
58756;SDS011;44527;47.460;19.016;2022-09-28T02:50:26;0.45;;;0.43;;
58756;SDS011;44527;47.460;19.016;2022-09-28T02:53:46;1.73;;;0.70;;
58756;SDS011;44527;47.460;19.016;2022-09-28T03:00:16;1.33;;;0.50;;
58756;SDS011;44527;47.460;19.016;2022-09-28T03:03:30;1.30;;;0.50;;
58756;SDS011;44527;47.460;19.016;2022-09-28T03:06:45;4.65;;;0.30;;
58756;SDS011;44527;47.460;19.016;2022-09-28T03:09:56;0.70;;;0.60;;
58756;SDS011;44527;47.460;19.016;2022-09-28T03:13:04;4.15;;;0.60;;
58756;SDS011;44527;47.460;19.016;2022-09-28T03:16:08;4.00;;;0.60;;
58756;SDS011;44527;47.460;19.016;2022-09-28T03:19:15;0.65;;;0.57;;
58756;SDS011;44527;47.460;19.016;2022-09-28T03:22:22;0.68;;;0.40;;
58756;SDS011;44527;47.460;19.016;2022-09-28T03:25:24;1.27;;;0.60;;
58756;SDS011;44527;47.460;19.016;2022-09-28T03:28:27;0.60;;;0.47;;
58756;SDS011;44527;47.460;19.016;2022-09-28T03:31:31;0.40;;;0.37;;
58756;SDS011;44527;47.460;19.016;2022-09-28T03:34:34;1.65;;;0.70;;
58756;SDS011;44527;47.460;19.016;2022-09-28T03:37:36;1.05;;;0.50;;
58756;SDS011;44527;47.460;19.016;2022-09-28T03:40:39;0.40;;;0.32;;
58756;SDS011;44527;47.460;19.016;2022-09-28T03:43:41;2.20;;;0.50;;
58756;SDS011;44527;47.460;19.016;2022-09-28T03:46:46;1.12;;;0.47;;
58756;SDS011;44527;47.460;19.016;2022-09-28T03:49:48;1.25;;;0.60;;
58756;SDS011;44527;47.460;19.016;2022-09-28T03:52:50;0.93;;;0.47;;
58756;SDS011;44527;47.460;19.016;2022-09-28T03:55:52;1.95;;;0.80;;
58756;SDS011;44527;47.460;19.016;2022-09-28T03:58:55;3.58;;;0.80;;
58756;SDS011;44527;47.460;19.016;2022-09-28T04:01:57;1.48;;;0.73;;
58756;SDS011;44527;47.460;19.016;2022-09-28T04:04:59;0.95;;;0.60;;
58756;SDS011;44527;47.460;19.016;2022-09-28T04:08:02;1.15;;;0.57;;
58756;SDS011;44527;47.460;19.016;2022-09-28T04:11:05;2.12;;;0.75;;
58756;SDS011;44527;47.460;19.016;2022-09-28T04:14:07;2.60;;;0.75;;
58756;SDS011;44527;47.460;19.016;2022-09-28T04:17:10;2.45;;;0.80;;
58756;SDS011;44527;47.460;19.016;2022-09-28T04:20:12;1.17;;;0.80;;
58756;SDS011;44527;47.460;19.016;2022-09-28T04:23:17;1.30;;;0.70;;
58756;SDS011;44527;47.460;19.016;2022-09-28T04:26:22;3.83;;;1.10;;
58756;SDS011;44527;47.460;19.016;2022-09-28T04:29:25;2.10;;;0.90;;
58756;SDS011;44527;47.460;19.016;2022-09-28T04:32:28;4.47;;;0.80;;
58756;SDS011;44527;47.460;19.016;2022-09-28T04:35:31;3.97;;;0.85;;
58756;SDS011;44527;47.460;19.016;2022-09-28T04:38:33;1.10;;;0.70;;
58756;SDS011;44527;47.460;19.016;2022-09-28T04:41:57;2.05;;;0.80;;
58756;SDS011;44527;47.460;19.016;2022-09-28T04:45:01;1.37;;;0.88;;
58756;SDS011;44527;47.460;19.016;2022-09-28T04:48:06;2.62;;;0.82;;
58756;SDS011;44527;47.460;19.016;2022-09-28T04:51:11;1.20;;;0.88;;
58756;SDS011;44527;47.460;19.016;2022-09-28T04:54:13;4.22;;;0.88;;
58756;SDS011;44527;47.460;19.016;2022-09-28T04:57:15;3.75;;;0.90;;
58756;SDS011;44527;47.460;19.016;2022-09-28T05:00:18;1.33;;;0.70;;
58756;SDS011;44527;47.460;19.016;2022-09-28T05:03:24;3.75;;;0.85;;
58756;SDS011;44527;47.460;19.016;2022-09-28T05:06:27;2.05;;;0.73;;
58756;SDS011;44527;47.460;19.016;2022-09-28T05:09:32;7.78;;;1.10;;
58756;SDS011;44527;47.460;19.016;2022-09-28T05:12:40;3.10;;;1.23;;
58756;SDS011;44527;47.460;19.016;2022-09-28T05:15:44;2.22;;;1.10;;
58756;SDS011;44527;47.460;19.016;2022-09-28T05:18:54;2.25;;;1.20;;
58756;SDS011;44527;47.460;19.016;2022-09-28T05:21:59;2.80;;;1.00;;
58756;SDS011;44527;47.460;19.016;2022-09-28T05:25:08;4.82;;;1.30;;
58756;SDS011;44527;47.460;19.016;2022-09-28T05:28:16;5.28;;;1.25;;
58756;SDS011;44527;47.460;19.016;2022-09-28T05:31:26;0.93;;;0.70;;
58756;SDS011;44527;47.460;19.016;2022-09-28T05:34:29;1.42;;;0.90;;
58756;SDS011;44527;47.460;19.016;2022-09-28T05:37:32;6.47;;;0.93;;
58756;SDS011;44527;47.460;19.016;2022-09-28T05:40:35;1.62;;;1.08;;
58756;SDS011;44527;47.460;19.016;2022-09-28T05:43:38;3.30;;;1.83;;
58756;SDS011;44527;47.460;19.016;2022-09-28T05:46:40;3.20;;;1.17;;
58756;SDS011;44527;47.460;19.016;2022-09-28T05:49:43;3.55;;;1.23;;
58756;SDS011;44527;47.460;19.016;2022-09-28T05:52:45;2.37;;;1.00;;
58756;SDS011;44527;47.460;19.016;2022-09-28T05:55:48;4.82;;;1.48;;
58756;SDS011;44527;47.460;19.016;2022-09-28T05:58:50;12.37;;;1.23;;
58756;SDS011;44527;47.460;19.016;2022-09-28T06:01:53;6.25;;;1.25;;
58756;SDS011;44527;47.460;19.016;2022-09-28T06:04:55;2.60;;;1.08;;
58756;SDS011;44527;47.460;19.016;2022-09-28T06:07:58;1.75;;;0.90;;
58756;SDS011;44527;47.460;19.016;2022-09-28T06:11:00;1.80;;;0.98;;
58756;SDS011;44527;47.460;19.016;2022-09-28T06:14:03;3.92;;;1.25;;
58756;SDS011;44527;47.460;19.016;2022-09-28T06:17:06;6.05;;;1.30;;
58756;SDS011;44527;47.460;19.016;2022-09-28T06:20:09;3.25;;;1.10;;
58756;SDS011;44527;47.460;19.016;2022-09-28T06:23:19;4.43;;;1.15;;
58756;SDS011;44527;47.460;19.016;2022-09-28T06:26:21;12.77;;;1.65;;
58756;SDS011;44527;47.460;19.016;2022-09-28T06:29:24;6.25;;;1.55;;
58756;SDS011;44527;47.460;19.016;2022-09-28T06:32:26;6.18;;;1.10;;
58756;SDS011;44527;47.460;19.016;2022-09-28T06:35:31;2.12;;;1.10;;
58756;SDS011;44527;47.460;19.016;2022-09-28T06:38:34;1.73;;;0.80;;
58756;SDS011;44527;47.460;19.016;2022-09-28T06:41:37;2.10;;;0.77;;
58756;SDS011;44527;47.460;19.016;2022-09-28T06:44:44;1.70;;;0.70;;
58756;SDS011;44527;47.460;19.016;2022-09-28T06:47:57;2.47;;;0.93;;
58756;SDS011;44527;47.460;19.016;2022-09-28T06:51:02;1.55;;;0.75;;
58756;SDS011;44527;47.460;19.016;2022-09-28T06:54:04;1.67;;;0.77;;
58756;SDS011;44527;47.460;19.016;2022-09-28T06:57:07;0.70;;;0.55;;
58756;SDS011;44527;47.460;19.016;2022-09-28T07:00:10;2.72;;;0.90;;
58756;SDS011;44527;47.460;19.016;2022-09-28T07:03:16;3.15;;;0.62;;
58756;SDS011;44527;47.460;19.016;2022-09-28T07:06:21;3.92;;;0.70;;
58756;SDS011;44527;47.460;19.016;2022-09-28T07:09:26;5.85;;;0.70;;
58756;SDS011;44527;47.460;19.016;2022-09-28T07:12:36;5.05;;;0.75;;
58756;SDS011;44527;47.460;19.016;2022-09-28T07:15:40;1.37;;;0.70;;
58756;SDS011;44527;47.460;19.016;2022-09-28T07:18:45;5.57;;;0.50;;
58756;SDS011;44527;47.460;19.016;2022-09-28T07:21:50;2.12;;;0.60;;
58756;SDS011;44527;47.460;19.016;2022-09-28T07:25:06;9.30;;;0.63;;
58756;SDS011;44527;47.460;19.016;2022-09-28T07:28:11;1.20;;;0.60;;
58756;SDS011;44527;47.460;19.016;2022-09-28T07:31:14;0.85;;;0.30;;
58756;SDS011;44527;47.460;19.016;2022-09-28T07:34:16;1.65;;;0.40;;
58756;SDS011;44527;47.460;19.016;2022-09-28T07:37:21;2.65;;;0.50;;
58756;SDS011;44527;47.460;19.016;2022-09-28T07:40:25;3.55;;;0.57;;
58756;SDS011;44527;47.460;19.016;2022-09-28T07:43:50;1.52;;;0.40;;
58756;SDS011;44527;47.460;19.016;2022-09-28T07:46:53;3.53;;;0.90;;
58756;SDS011;44527;47.460;19.016;2022-09-28T07:49:55;1.90;;;0.88;;
58756;SDS011;44527;47.460;19.016;2022-09-28T07:53:01;4.97;;;0.57;;
58756;SDS011;44527;47.460;19.016;2022-09-28T07:56:05;2.00;;;0.90;;
58756;SDS011;44527;47.460;19.016;2022-09-28T07:59:10;1.10;;;0.70;;
58756;SDS011;44527;47.460;19.016;2022-09-28T08:02:15;3.10;;;0.52;;
58756;SDS011;44527;47.460;19.016;2022-09-28T08:05:21;3.55;;;1.10;;
58756;SDS011;44527;47.460;19.016;2022-09-28T08:08:23;4.75;;;2.08;;
58756;SDS011;44527;47.460;19.016;2022-09-28T08:11:26;3.78;;;0.98;;
58756;SDS011;44527;47.460;19.016;2022-09-28T08:14:30;2.65;;;1.00;;
58756;SDS011;44527;47.460;19.016;2022-09-28T08:17:35;2.00;;;1.10;;
58756;SDS011;44527;47.460;19.016;2022-09-28T08:20:38;3.85;;;1.33;;
58756;SDS011;44527;47.460;19.016;2022-09-28T08:24:00;1.73;;;0.80;;
58756;SDS011;44527;47.460;19.016;2022-09-28T08:27:02;6.78;;;1.10;;
58756;SDS011;44527;47.460;19.016;2022-09-28T08:30:08;4.15;;;1.10;;
58756;SDS011;44527;47.460;19.016;2022-09-28T08:33:14;1.20;;;0.80;;
58756;SDS011;44527;47.460;19.016;2022-09-28T08:36:28;1.80;;;0.98;;
58756;SDS011;44527;47.460;19.016;2022-09-28T08:39:32;3.95;;;0.75;;
58756;SDS011;44527;47.460;19.016;2022-09-28T08:42:39;1.48;;;0.70;;
58756;SDS011;44527;47.460;19.016;2022-09-28T08:45:45;1.98;;;0.80;;
58756;SDS011;44527;47.460;19.016;2022-09-28T08:48:53;1.87;;;0.82;;
58756;SDS011;44527;47.460;19.016;2022-09-28T08:52:25;1.45;;;0.90;;
58756;SDS011;44527;47.460;19.016;2022-09-28T08:55:32;1.90;;;0.75;;
58756;SDS011;44527;47.460;19.016;2022-09-28T08:58:40;1.20;;;0.70;;
58756;SDS011;44527;47.460;19.016;2022-09-28T09:04:56;4.10;;;1.00;;
58756;SDS011;44527;47.460;19.016;2022-09-28T09:17:52;2.12;;;0.90;;
58756;SDS011;44527;47.460;19.016;2022-09-28T09:24:48;2.25;;;1.02;;
58756;SDS011;44527;47.460;19.016;2022-09-28T09:31:17;2.47;;;1.00;;
58756;SDS011;44527;47.460;19.016;2022-09-28T09:41:52;3.08;;;0.98;;
58756;SDS011;44527;47.460;19.016;2022-09-28T09:48:27;1.75;;;0.80;;
58756;SDS011;44527;47.460;19.016;2022-09-28T09:54:54;3.97;;;1.00;;
58756;SDS011;44527;47.460;19.016;2022-09-28T09:58:05;2.67;;;0.73;;
58756;SDS011;44527;47.460;19.016;2022-09-28T10:01:13;1.15;;;0.90;;
58756;SDS011;44527;47.460;19.016;2022-09-28T10:04:29;2.95;;;0.85;;
58756;SDS011;44527;47.460;19.016;2022-09-28T10:07:53;1.83;;;0.80;;
58756;SDS011;44527;47.460;19.016;2022-09-28T10:14:21;1.80;;;0.80;;
58756;SDS011;44527;47.460;19.016;2022-09-28T10:17:25;1.37;;;0.65;;
58756;SDS011;44527;47.460;19.016;2022-09-28T10:20:36;0.90;;;0.55;;
58756;SDS011;44527;47.460;19.016;2022-09-28T10:23:41;8.45;;;1.17;;
58756;SDS011;44527;47.460;19.016;2022-09-28T10:26:45;1.58;;;0.88;;
58756;SDS011;44527;47.460;19.016;2022-09-28T10:29:54;4.55;;;0.60;;
58756;SDS011;44527;47.460;19.016;2022-09-28T10:33:01;2.05;;;0.70;;
58756;SDS011;44527;47.460;19.016;2022-09-28T10:36:05;1.58;;;0.70;;
58756;SDS011;44527;47.460;19.016;2022-09-28T10:42:34;1.98;;;0.70;;
58756;SDS011;44527;47.460;19.016;2022-09-28T10:45:37;2.20;;;0.62;;
58756;SDS011;44527;47.460;19.016;2022-09-28T10:48:54;2.37;;;0.80;;
58756;SDS011;44527;47.460;19.016;2022-09-28T10:52:09;2.10;;;0.73;;
58756;SDS011;44527;47.460;19.016;2022-09-28T10:55:30;2.20;;;0.90;;
58756;SDS011;44527;47.460;19.016;2022-09-28T10:58:38;6.18;;;3.87;;
58756;SDS011;44527;47.460;19.016;2022-09-28T11:01:44;1.10;;;0.70;;
58756;SDS011;44527;47.460;19.016;2022-09-28T11:04:49;1.25;;;0.85;;
58756;SDS011;44527;47.460;19.016;2022-09-28T11:07:55;1.27;;;0.90;;
58756;SDS011;44527;47.460;19.016;2022-09-28T11:11:02;4.80;;;1.05;;
58756;SDS011;44527;47.460;19.016;2022-09-28T11:14:05;1.73;;;0.80;;
58756;SDS011;44527;47.460;19.016;2022-09-28T11:17:43;3.45;;;1.23;;
58756;SDS011;44527;47.460;19.016;2022-09-28T11:20:45;2.72;;;1.02;;
58756;SDS011;44527;47.460;19.016;2022-09-28T11:24:09;2.12;;;1.20;;
58756;SDS011;44527;47.460;19.016;2022-09-28T11:27:22;5.30;;;1.27;;
58756;SDS011;44527;47.460;19.016;2022-09-28T11:30:31;4.75;;;1.55;;
58756;SDS011;44527;47.460;19.016;2022-09-28T11:33:46;5.25;;;1.37;;
58756;SDS011;44527;47.460;19.016;2022-09-28T11:53:28;2.80;;;1.10;;
58756;SDS011;44527;47.460;19.016;2022-09-28T11:56:37;7.37;;;1.40;;
58756;SDS011;44527;47.460;19.016;2022-09-28T11:59:49;2.57;;;1.20;;
58756;SDS011;44527;47.460;19.016;2022-09-28T12:03:00;1.40;;;0.95;;
58756;SDS011;44527;47.460;19.016;2022-09-28T12:09:29;2.08;;;1.12;;
58756;SDS011;44527;47.460;19.016;2022-09-28T12:16:00;7.47;;;1.33;;
58756;SDS011;44527;47.460;19.016;2022-09-28T12:19:38;2.00;;;0.80;;
58756;SDS011;44527;47.460;19.016;2022-09-28T12:22:59;1.15;;;0.77;;
58756;SDS011;44527;47.460;19.016;2022-09-28T12:29:40;1.80;;;0.73;;
58756;SDS011;44527;47.460;19.016;2022-09-28T12:32:49;2.33;;;0.95;;
58756;SDS011;44527;47.460;19.016;2022-09-28T12:39:23;1.52;;;0.70;;
58756;SDS011;44527;47.460;19.016;2022-09-28T12:53:17;1.15;;;0.57;;
58756;SDS011;44527;47.460;19.016;2022-09-28T13:00:24;9.27;;;0.85;;
58756;SDS011;44527;47.460;19.016;2022-09-28T13:06:59;3.95;;;0.75;;
58756;SDS011;44527;47.460;19.016;2022-09-28T13:20:22;0.50;;;0.40;;
58756;SDS011;44527;47.460;19.016;2022-09-28T13:23:43;2.92;;;0.70;;
58756;SDS011;44527;47.460;19.016;2022-09-28T13:26:47;1.10;;;0.52;;
58756;SDS011;44527;47.460;19.016;2022-09-28T13:29:50;9.75;;;0.52;;
58756;SDS011;44527;47.460;19.016;2022-09-28T13:32:56;1.33;;;0.40;;
58756;SDS011;44527;47.460;19.016;2022-09-28T13:36:02;2.00;;;0.65;;
58756;SDS011;44527;47.460;19.016;2022-09-28T13:39:35;0.98;;;0.60;;
58756;SDS011;44527;47.460;19.016;2022-09-28T13:45:58;0.88;;;0.45;;
58756;SDS011;44527;47.460;19.016;2022-09-28T13:52:34;0.90;;;0.52;;
58756;SDS011;44527;47.460;19.016;2022-09-28T14:02:27;0.50;;;0.30;;
58756;SDS011;44527;47.460;19.016;2022-09-28T14:15:39;3.65;;;0.60;;
58756;SDS011;44527;47.460;19.016;2022-09-28T14:18:55;0.52;;;0.37;;
58756;SDS011;44527;47.460;19.016;2022-09-28T14:25:35;0.68;;;0.30;;
58756;SDS011;44527;47.460;19.016;2022-09-28T14:35:15;0.80;;;0.50;;
58756;SDS011;44527;47.460;19.016;2022-09-28T14:38:30;0.60;;;0.30;;
58756;SDS011;44527;47.460;19.016;2022-09-28T14:41:55;2.78;;;0.57;;
58756;SDS011;44527;47.460;19.016;2022-09-28T14:48:17;1.77;;;0.50;;
58756;SDS011;44527;47.460;19.016;2022-09-28T14:54:28;1.75;;;0.60;;
58756;SDS011;44527;47.460;19.016;2022-09-28T14:57:40;2.53;;;0.90;;
58756;SDS011;44527;47.460;19.016;2022-09-28T15:00:42;1.70;;;0.80;;
58756;SDS011;44527;47.460;19.016;2022-09-28T15:03:48;4.68;;;0.80;;
58756;SDS011;44527;47.460;19.016;2022-09-28T15:06:54;2.35;;;0.70;;
58756;SDS011;44527;47.460;19.016;2022-09-28T15:10:00;7.15;;;1.12;;
58756;SDS011;44527;47.460;19.016;2022-09-28T15:13:14;0.80;;;0.60;;
58756;SDS011;44527;47.460;19.016;2022-09-28T15:16:17;0.88;;;0.65;;
58756;SDS011;44527;47.460;19.016;2022-09-28T15:19:27;2.30;;;0.70;;
58756;SDS011;44527;47.460;19.016;2022-09-28T15:22:54;1.85;;;0.75;;
58756;SDS011;44527;47.460;19.016;2022-09-28T15:25:59;1.87;;;0.70;;
58756;SDS011;44527;47.460;19.016;2022-09-28T15:29:13;2.62;;;0.90;;
58756;SDS011;44527;47.460;19.016;2022-09-28T15:32:25;1.95;;;0.93;;
58756;SDS011;44527;47.460;19.016;2022-09-28T15:35:28;1.48;;;0.73;;
58756;SDS011;44527;47.460;19.016;2022-09-28T15:38:30;2.42;;;1.00;;
58756;SDS011;44527;47.460;19.016;2022-09-28T15:41:35;7.50;;;1.10;;
58756;SDS011;44527;47.460;19.016;2022-09-28T15:44:37;8.05;;;1.10;;
58756;SDS011;44527;47.460;19.016;2022-09-28T15:47:42;5.40;;;1.33;;
58756;SDS011;44527;47.460;19.016;2022-09-28T15:50:56;4.00;;;0.90;;
58756;SDS011;44527;47.460;19.016;2022-09-28T15:54:03;1.83;;;0.77;;
58756;SDS011;44527;47.460;19.016;2022-09-28T15:57:32;1.62;;;1.05;;
58756;SDS011;44527;47.460;19.016;2022-09-28T16:00:38;2.85;;;1.20;;
58756;SDS011;44527;47.460;19.016;2022-09-28T16:03:41;5.03;;;1.20;;
58756;SDS011;44527;47.460;19.016;2022-09-28T16:06:43;6.55;;;1.48;;
58756;SDS011;44527;47.460;19.016;2022-09-28T16:10:00;5.37;;;1.15;;
58756;SDS011;44527;47.460;19.016;2022-09-28T16:13:26;3.17;;;0.82;;
58756;SDS011;44527;47.460;19.016;2022-09-28T16:16:33;4.45;;;1.30;;
58756;SDS011;44527;47.460;19.016;2022-09-28T16:19:38;5.90;;;1.45;;
58756;SDS011;44527;47.460;19.016;2022-09-28T16:22:41;2.67;;;1.10;;
58756;SDS011;44527;47.460;19.016;2022-09-28T16:26:00;2.47;;;1.30;;
58756;SDS011;44527;47.460;19.016;2022-09-28T16:29:07;2.40;;;1.20;;
58756;SDS011;44527;47.460;19.016;2022-09-28T16:38:43;3.28;;;1.10;;
58756;SDS011;44527;47.460;19.016;2022-09-28T16:41:51;3.15;;;1.10;;
58756;SDS011;44527;47.460;19.016;2022-09-28T16:44:58;2.55;;;1.20;;
58756;SDS011;44527;47.460;19.016;2022-09-28T16:48:05;2.60;;;0.82;;
58756;SDS011;44527;47.460;19.016;2022-09-28T16:51:07;4.55;;;1.30;;
58756;SDS011;44527;47.460;19.016;2022-09-28T16:54:19;6.75;;;2.42;;
58756;SDS011;44527;47.460;19.016;2022-09-28T16:57:42;3.45;;;1.55;;
58756;SDS011;44527;47.460;19.016;2022-09-28T17:00:46;4.43;;;1.42;;
58756;SDS011;44527;47.460;19.016;2022-09-28T17:03:48;3.70;;;1.15;;
58756;SDS011;44527;47.460;19.016;2022-09-28T17:06:51;4.93;;;1.27;;
58756;SDS011;44527;47.460;19.016;2022-09-28T17:09:55;16.48;;;1.80;;
58756;SDS011;44527;47.460;19.016;2022-09-28T17:12:57;9.55;;;1.85;;
58756;SDS011;44527;47.460;19.016;2022-09-28T17:16:00;3.53;;;1.60;;
58756;SDS011;44527;47.460;19.016;2022-09-28T17:19:23;5.12;;;2.33;;
58756;SDS011;44527;47.460;19.016;2022-09-28T17:22:27;6.82;;;1.92;;
58756;SDS011;44527;47.460;19.016;2022-09-28T17:25:30;5.65;;;2.10;;
58756;SDS011;44527;47.460;19.016;2022-09-28T17:28:35;5.47;;;2.25;;
58756;SDS011;44527;47.460;19.016;2022-09-28T17:31:38;11.60;;;2.90;;
58756;SDS011;44527;47.460;19.016;2022-09-28T17:34:40;4.85;;;2.12;;
58756;SDS011;44527;47.460;19.016;2022-09-28T17:37:56;9.57;;;2.33;;
58756;SDS011;44527;47.460;19.016;2022-09-28T17:40:58;4.75;;;2.28;;
58756;SDS011;44527;47.460;19.016;2022-09-28T17:44:01;6.53;;;2.30;;
58756;SDS011;44527;47.460;19.016;2022-09-28T17:47:04;4.70;;;2.35;;
58756;SDS011;44527;47.460;19.016;2022-09-28T17:50:25;5.15;;;2.25;;
58756;SDS011;44527;47.460;19.016;2022-09-28T17:53:30;4.00;;;2.53;;
58756;SDS011;44527;47.460;19.016;2022-09-28T17:56:33;7.18;;;2.17;;
58756;SDS011;44527;47.460;19.016;2022-09-28T17:59:36;13.13;;;2.30;;
58756;SDS011;44527;47.460;19.016;2022-09-28T18:02:38;4.82;;;2.28;;
58756;SDS011;44527;47.460;19.016;2022-09-28T18:05:42;6.05;;;2.50;;
58756;SDS011;44527;47.460;19.016;2022-09-28T18:08:44;4.45;;;2.55;;
58756;SDS011;44527;47.460;19.016;2022-09-28T18:11:47;4.78;;;2.65;;
58756;SDS011;44527;47.460;19.016;2022-09-28T18:14:53;5.47;;;2.60;;
58756;SDS011;44527;47.460;19.016;2022-09-28T18:17:56;9.70;;;2.75;;
58756;SDS011;44527;47.460;19.016;2022-09-28T18:21:00;4.78;;;2.58;;
58756;SDS011;44527;47.460;19.016;2022-09-28T18:24:03;5.95;;;2.87;;
58756;SDS011;44527;47.460;19.016;2022-09-28T18:27:05;8.57;;;2.85;;
58756;SDS011;44527;47.460;19.016;2022-09-28T18:30:08;6.37;;;3.22;;
58756;SDS011;44527;47.460;19.016;2022-09-28T18:33:11;6.82;;;2.90;;
58756;SDS011;44527;47.460;19.016;2022-09-28T18:36:15;6.40;;;2.47;;
58756;SDS011;44527;47.460;19.016;2022-09-28T18:39:17;4.82;;;2.42;;
58756;SDS011;44527;47.460;19.016;2022-09-28T18:42:19;4.20;;;2.50;;
58756;SDS011;44527;47.460;19.016;2022-09-28T18:45:21;6.53;;;3.08;;
58756;SDS011;44527;47.460;19.016;2022-09-28T18:48:24;8.27;;;3.12;;
58756;SDS011;44527;47.460;19.016;2022-09-28T18:51:28;5.22;;;3.05;;
58756;SDS011;44527;47.460;19.016;2022-09-28T18:54:31;11.63;;;3.87;;
58756;SDS011;44527;47.460;19.016;2022-09-28T18:57:34;8.25;;;3.55;;
58756;SDS011;44527;47.460;19.016;2022-09-28T19:00:37;8.27;;;3.10;;
58756;SDS011;44527;47.460;19.016;2022-09-28T19:03:41;5.35;;;3.12;;
58756;SDS011;44527;47.460;19.016;2022-09-28T19:06:43;6.28;;;3.08;;
58756;SDS011;44527;47.460;19.016;2022-09-28T19:09:48;7.95;;;3.42;;
58756;SDS011;44527;47.460;19.016;2022-09-28T19:12:51;7.07;;;3.00;;
58756;SDS011;44527;47.460;19.016;2022-09-28T19:15:53;4.68;;;3.10;;
58756;SDS011;44527;47.460;19.016;2022-09-28T19:18:57;8.32;;;2.90;;
58756;SDS011;44527;47.460;19.016;2022-09-28T19:21:59;4.78;;;2.90;;
58756;SDS011;44527;47.460;19.016;2022-09-28T19:25:02;7.32;;;3.70;;
58756;SDS011;44527;47.460;19.016;2022-09-28T19:28:05;5.32;;;3.00;;
58756;SDS011;44527;47.460;19.016;2022-09-28T19:31:07;7.28;;;2.85;;
58756;SDS011;44527;47.460;19.016;2022-09-28T19:34:11;6.55;;;3.03;;
58756;SDS011;44527;47.460;19.016;2022-09-28T19:37:15;6.82;;;2.95;;
58756;SDS011;44527;47.460;19.016;2022-09-28T19:40:17;6.75;;;3.45;;
58756;SDS011;44527;47.460;19.016;2022-09-28T19:43:20;8.00;;;3.60;;
58756;SDS011;44527;47.460;19.016;2022-09-28T19:46:22;7.68;;;3.60;;
58756;SDS011;44527;47.460;19.016;2022-09-28T19:49:25;6.95;;;3.15;;
58756;SDS011;44527;47.460;19.016;2022-09-28T19:52:28;12.52;;;3.50;;
58756;SDS011;44527;47.460;19.016;2022-09-28T19:55:31;10.70;;;3.72;;
58756;SDS011;44527;47.460;19.016;2022-09-28T19:58:37;8.10;;;3.60;;
58756;SDS011;44527;47.460;19.016;2022-09-28T20:01:40;9.68;;;3.75;;
58756;SDS011;44527;47.460;19.016;2022-09-28T20:04:43;9.60;;;4.05;;
58756;SDS011;44527;47.460;19.016;2022-09-28T20:07:45;10.15;;;4.03;;
58756;SDS011;44527;47.460;19.016;2022-09-28T20:10:48;6.90;;;4.18;;
58756;SDS011;44527;47.460;19.016;2022-09-28T20:13:53;8.40;;;4.12;;
58756;SDS011;44527;47.460;19.016;2022-09-28T20:16:56;7.93;;;4.15;;
58756;SDS011;44527;47.460;19.016;2022-09-28T20:19:58;6.85;;;4.20;;
58756;SDS011;44527;47.460;19.016;2022-09-28T20:23:01;10.15;;;4.70;;
58756;SDS011;44527;47.460;19.016;2022-09-28T20:26:04;8.82;;;5.25;;
58756;SDS011;44527;47.460;19.016;2022-09-28T20:29:08;8.80;;;5.07;;
58756;SDS011;44527;47.460;19.016;2022-09-28T20:32:10;7.47;;;4.70;;
58756;SDS011;44527;47.460;19.016;2022-09-28T20:35:13;13.27;;;4.75;;
58756;SDS011;44527;47.460;19.016;2022-09-28T20:38:31;8.90;;;5.65;;
58756;SDS011;44527;47.460;19.016;2022-09-28T20:41:33;11.50;;;5.05;;
58756;SDS011;44527;47.460;19.016;2022-09-28T20:44:40;9.38;;;5.15;;
58756;SDS011;44527;47.460;19.016;2022-09-28T20:47:42;10.23;;;4.82;;
58756;SDS011;44527;47.460;19.016;2022-09-28T20:50:44;9.00;;;4.50;;
58756;SDS011;44527;47.460;19.016;2022-09-28T20:53:48;9.57;;;4.97;;
58756;SDS011;44527;47.460;19.016;2022-09-28T20:56:55;9.15;;;4.53;;
58756;SDS011;44527;47.460;19.016;2022-09-28T20:59:57;12.88;;;4.87;;
58756;SDS011;44527;47.460;19.016;2022-09-28T21:02:59;9.90;;;4.47;;
58756;SDS011;44527;47.460;19.016;2022-09-28T21:06:02;9.20;;;4.53;;
58756;SDS011;44527;47.460;19.016;2022-09-28T21:09:12;9.05;;;4.65;;